Date,TemperatureHighF,TemperatureAvgF,TemperatureLowF,DewpointHighF,DewpointAvgF,DewpointLowF,HumidityHigh,HumidityAvg,HumidityLow,PressureMaxIn,PressureMinIn,WindSpeedMaxMPH,WindSpeedAvgMPH,GustSpeedMaxMPH,PrecipitationSumIn
2013-5-1,85,74,69,74,70,67,99,88,55,0.00,40.00,10,5,21,1.02
2013-5-2,79,71,68,72,69,68,99,94,78,0.00,40.00,11,6,20,0.29
2013-5-3,87,74,67,70,68,65,99,83,50,0.00,40.00,11,6,21,0.28
2013-5-4,87,75,66,70,67,65,99,78,48,0.00,40.00,13,7,27,0.07
2013-5-5,80,72,64,67,62,52,98,75,39,0.00,40.00,14,7,24,0.05
2013-5-6,82,70,58,67,61,56,96,74,46,0.00,40.00,8,5,16,0.04
2013-5-7,83,70,61,63,59,55,98,73,42,0.00,40.00,11,6,21,0.05
2013-5-8,85,72,60,67,59,53,97,68,34,0.00,40.00,7,5,15,0.03
2013-5-9,89,75,62,74,65,60,97,75,41,0.00,40.00,10,4,18,0.02
2013-5-10,89,77,72,75,68,-100,99,81,49,0.00,40.00,12,6,40,0.49
2013-5-11,89,79,71,77,72,66,100,82,47,0.00,40.00,15,6,22,0.46
2013-5-12,89,78,71,76,70,-100,99,82,50,0.00,40.00,11,5,23,0.07
2013-5-13,84,77,69,72,69,65,99,79,55,0.00,40.00,11,6,19,0.09
2013-5-14,82,74,65,68,61,56,94,67,42,0.00,40.00,13,8,22,0.01
2013-5-15,82,73,64,65,62,57,94,70,43,0.00,40.00,13,6,22,0.00
2013-5-16,85,68,65,66,41,-100,95,68,41,0.00,40.00,11,6,17,0.00
2013-5-17,87,75,67,73,61,-100,97,79,48,0.00,40.00,11,5,19,0.00
2013-5-18,88,78,70,73,71,68,99,80,52,0.00,40.00,13,5,22,0.19
2013-5-19,88,78,70,72,69,64,99,76,48,0.00,40.00,11,6,19,0.01
2013-5-20,83,75,70,77,71,68,99,88,66,0.00,40.00,13,5,23,0.00
2013-5-21,87,76,68,72,69,67,98,81,56,0.00,40.00,15,7,23,0.02
2013-5-22,90,76,71,74,71,69,99,86,51,0.00,40.00,8,4,23,0.59
2013-5-23,91,80,70,76,71,65,99,77,43,0.00,40.00,9,5,16,0.26
2013-5-24,93,81,70,75,70,63,99,74,38,0.00,40.00,9,5,17,0.01
2013-5-25,86,79,71,74,68,64,96,72,48,0.00,40.00,14,8,22,0.00
2013-5-26,86,76,65,68,64,62,95,71,46,0.00,40.00,12,7,22,0.00
2013-5-27,85,76,66,72,68,64,94,76,58,0.00,40.00,15,9,22,0.00
2013-5-28,84,77,73,74,72,69,95,86,65,0.00,40.00,15,9,24,0.56
2013-5-29,81,75,71,74,71,68,97,89,70,0.00,40.00,14,8,28,0.05
2013-5-30,83,77,71,75,71,68,97,84,67,0.00,40.00,19,11,32,0.02
2013-5-31,84,77,74,75,73,72,97,89,70,0.00,40.00,14,8,22,0.02